Aeroporto :
LOGIN :

Iscrizione | Disclaimer

   EN    FR    IT 

 










Sommario :    VFR   VFR Marginale   IFR   IFR Intensivo   IFR Molto Intensivo
Visibilità : 
Base nubi : 
>= 8 km
>= 3000ft
5 / 8 km
1000 / 3000 ft
1500m / 5 km
500 / 1000 ft
800 / 1500m
200 / 500 ft
< 800m
< 200 ft
Simboli :   Temporali  Nebbia  Neve Forte  Precipitazioni Forti  Vento > 20 kt
SIGMETs :   Varie  Temporali  Ghiacco  Turbolenza  Onda orograficha  Ceneri Vulcaniche






- Altitudine del aeroporto : 14 ft
- Codice IATA : BRE


EDDW - Bremen Neuenland

ULTIMO METAR :
  • 261820Z 16005KT CAVOK 18/09 Q1034 NOSIG

METARs OBSOLETI :
  • 261750Z 15006KT CAVOK 19/09 Q1034 NOSIG
  • 261720Z 15004KT 100V200 CAVOK 20/08 Q1034 NOSIG
  • 261650Z 26003KT 210V310 CAVOK 20/07 Q1034 NOSIG
  • 261620Z VRB04KT CAVOK 20/08 Q1034 NOSIG
  • 261550Z 04004KT 340V080 CAVOK 21/07 Q1034 NOSIG

TAF TAF EDDW
Valido dal 26 a 18 ore il 27 a 18 ore UTC


261700Z 2618/2718 VRB03KT 9999 FEW040
PROB30
TEMPO 2702/2705 2000 BCFG
BECMG 2707/2709 31005KT
BECMG 2711/2713 33011KT



MetMap, La meteo Aeronautica in un colpo d'occhio ! - Copyright ORBIFLY Dicembre 2007 - Disclaimer

ORBIFLY MET'MAP TEAM :

Programmazione e sviluppo : Alexandra Zaïnal
Concezione : Baudouin d'Aumeries
Aiuto per la programmazione : Marc-Olivier Méhu
Supporto tecnico e logistico : Manuel Goepfert
Aiuto per la traduzione : Arnaldo La Scala

Contatto : metmap@orbifly.com




FONTI E CREDITI :

   NOAA